Time;durP1;ratioP1;P1;durP2;ratioP2;P2;SDS_P1;SDS_P2;PMS_P1;PMS_P2;Temp;Humidity;BMP_temperature;BMP_pressure;BME280_temperature;BME280_humidity;BME280_pressure;Samples;Min_cycle;Max_cycle;Signal;HPM_P1;HPM_P2
2023/01/12 00:00:32;;;;;;;;;4.33;3.33;;;;;10.48;100.00;101483.44;5100294;27;45778;-82
2023/01/12 00:02:58;;;;;;;;;3.33;3.00;;;;;10.52;100.00;101494.59;5100124;27;45380;-82
2023/01/12 00:05:23;;;;;;;;;7.00;5.67;;;;;10.55;100.00;101482.81;5082088;27;45327;-82
2023/01/12 00:07:48;;;;;;;;;2.00;2.00;;;;;10.55;100.00;101488.97;5099907;27;45492;-83
2023/01/12 00:10:14;;;;;;;;;2.00;2.00;;;;;10.45;100.00;101467.78;5098968;27;47670;-81
2023/01/12 00:12:39;;;;;;;;;2.67;2.67;;;;;10.56;100.00;101481.81;5098585;27;45364;-82
2023/01/12 00:15:05;;;;;;;;;4.00;3.00;;;;;10.53;100.00;101471.50;5100419;27;45345;-86
2023/01/12 00:17:31;;;;;;;;;5.33;5.00;;;;;10.58;100.00;101470.06;5081540;27;46302;-81
2023/01/12 00:19:56;;;;;;;;;4.33;4.00;;;;;10.59;100.00;101473.53;5100124;27;45356;-82
2023/01/12 00:22:22;;;;;;;;;6.67;6.00;;;;;10.55;100.00;101459.72;5100053;27;45353;-81
2023/01/12 00:24:48;;;;;;;;;3.00;3.00;;;;;10.46;100.00;101447.38;5098924;27;45306;-82
2023/01/12 00:27:18;;;;;;;;;4.67;4.00;;;;;10.55;100.00;101445.59;5099847;27;45215;-81
2023/01/12 00:29:44;;;;;;;;;3.00;3.00;;;;;10.59;100.00;101453.09;5081255;27;46022;-83
2023/01/12 00:32:18;;;;;;;;;3.33;3.00;;;;;10.52;100.00;101445.91;5099710;27;45267;-82
2023/01/12 00:34:44;;;;;;;;;5.00;3.67;;;;;10.59;100.00;101452.25;5099295;27;45422;-83
2023/01/12 00:37:10;;;;;;;;;4.00;3.67;;;;;10.55;100.00;101427.84;5106325;27;45365;-82
2023/01/12 00:39:36;;;;;;;;;4.00;3.00;;;;;10.59;100.00;101444.28;5105486;27;48072;-83
2023/01/12 00:47:31;;;;;;;;;7.33;5.00;;;;;10.44;100.00;101426.22;5106415;27;45360;-83
2023/01/12 00:49:56;;;;;;;;;4.67;3.33;;;;;10.44;100.00;101412.94;5106293;27;45326;-82
2023/01/12 00:52:21;;;;;;;;;3.00;3.00;;;;;10.45;100.00;101411.13;5112674;27;45884;-83
2023/01/12 00:54:47;;;;;;;;;6.67;4.33;;;;;10.52;100.00;101429.97;5106569;27;45275;-82
2023/01/12 00:57:13;;;;;;;;;4.00;3.00;;;;;10.51;100.00;101423.84;5106614;27;45345;-83
2023/01/12 00:59:39;;;;;;;;;5.67;4.00;;;;;10.57;100.00;101440.97;5106106;27;45355;-84
2023/01/12 01:02:04;;;;;;;;;5.67;3.33;;;;;10.58;100.00;101419.56;5105058;27;45281;-81
2023/01/12 01:04:30;;;;;;;;;7.00;4.00;;;;;10.57;100.00;101406.41;5106377;27;45148;-81
2023/01/12 01:06:56;;;;;;;;;5.00;4.00;;;;;10.58;100.00;101402.75;5106297;27;45265;-83
2023/01/12 01:09:22;;;;;;;;;2.67;2.67;;;;;10.60;100.00;101390.97;5101192;27;47482;-82
2023/01/12 01:11:47;;;;;;;;;5.00;3.67;;;;;10.59;100.00;101380.50;5101580;27;45243;-84
2023/01/12 01:14:12;;;;;;;;;4.33;4.00;;;;;10.56;100.00;101375.50;5101323;27;45348;-82
2023/01/12 01:16:38;;;;;;;;;3.67;2.00;;;;;10.53;100.00;101374.00;5096472;27;45361;-83
2023/01/12 01:19:04;;;;;;;;;5.00;5.00;;;;;10.57;100.00;101372.66;5106134;27;45693;-82
2023/01/12 01:21:31;;;;;;;;;3.33;3.33;;;;;10.63;100.00;101395.16;5106189;27;45507;-83
2023/01/12 01:23:56;;;;;;;;;2.00;2.00;;;;;10.59;100.00;101388.47;5092950;27;45333;-82
2023/01/12 01:26:23;;;;;;;;;2.33;2.33;;;;;10.65;100.00;101405.63;5105931;27;45535;-81
2023/01/12 01:28:49;;;;;;;;;3.33;3.00;;;;;10.64;100.00;101411.91;5105628;27;45232;-83
2023/01/12 01:31:17;;;;;;;;;4.00;3.67;;;;;10.62;100.00;101390.81;5106090;27;45171;-83
2023/01/12 01:33:43;;;;;;;;;4.67;3.00;;;;;10.64;100.00;101390.66;5105907;27;45235;-82
2023/01/12 01:36:09;;;;;;;;;7.00;4.00;;;;;10.37;100.00;101358.75;5106092;27;45412;-83
2023/01/12 01:38:35;;;;;;;;;7.67;5.33;;;;;10.65;100.00;101390.50;5105696;27;46467;-84
2023/01/12 01:41:01;;;;;;;;;2.67;2.67;;;;;10.70;100.00;101396.19;5106025;27;45405;-82
2023/01/12 01:43:28;;;;;;;;;4.00;3.00;;;;;10.70;100.00;101398.84;5104403;27;45444;-82
2023/01/12 01:46:06;;;;;;;;;4.67;3.67;;;;;10.68;100.00;101392.00;5105716;27;45422;-82
2023/01/12 01:48:38;;;;;;;;;4.00;4.00;;;;;10.65;100.00;101393.16;5086186;27;47342;-82
2023/01/12 01:51:08;;;;;;;;;3.00;3.00;;;;;10.52;100.00;101390.94;5090700;27;45261;-83
2023/01/12 01:53:36;;;;;;;;;5.00;5.00;;;;;10.63;100.00;101411.09;5102653;27;45397;-83
2023/01/12 01:56:13;;;;;;;;;2.67;2.00;;;;;10.65;100.00;101392.34;5102176;27;45243;-83
2023/01/12 01:58:52;;;;;;;;;3.67;3.00;;;;;10.58;100.00;101398.28;5083505;27;48083;-83
2023/01/12 02:01:17;;;;;;;;;3.00;1.00;;;;;10.52;100.00;101368.81;5100995;27;45498;-81
2023/01/12 02:03:44;;;;;;;;;6.33;5.33;;;;;10.52;100.00;101369.66;5102303;27;45411;-82
2023/01/12 02:06:10;;;;;;;;;6.33;2.00;;;;;10.45;100.00;101350.00;5101977;27;45304;-82
2023/01/12 02:08:38;;;;;;;;;3.33;3.00;;;;;10.62;100.00;101376.69;5102170;27;46270;-82
2023/01/12 02:16:19;;;;;;;;;7.00;3.67;;;;;10.55;100.00;101365.84;5102153;27;45364;-82
2023/01/12 02:16:47;;;;;;;;;3.00;2.00;;;;;10.58;100.00;101365.53;5102016;27;45213;-82
2023/01/12 02:19:31;;;;;;;;;4.00;4.00;;;;;10.60;100.00;101363.56;5101662;27;46249;-82
2023/01/12 02:22:15;;;;;;;;;4.00;3.33;;;;;10.60;100.00;101374.19;5101844;27;45269;-83
2023/01/12 02:24:49;;;;;;;;;4.00;2.00;;;;;10.60;100.00;101367.03;5102176;27;45334;-82
2023/01/12 02:27:40;;;;;;;;;2.67;2.67;;;;;10.34;100.00;101322.72;5083287;27;47338;-82
2023/01/12 02:30:31;;;;;;;;;3.00;2.00;;;;;10.62;100.00;101355.44;5040958;27;47397;-84
2023/01/12 02:33:15;;;;;;;;;3.00;2.67;;;;;10.54;100.00;101350.91;5101884;27;45437;-82
2023/01/12 02:36:08;;;;;;;;;5.67;3.67;;;;;10.62;100.00;101350.13;5100433;27;45372;-81
2023/01/12 02:38:48;;;;;;;;;4.00;4.00;;;;;10.62;100.00;101347.47;5100049;27;45413;-82
2023/01/12 02:44:26;;;;;;;;;5.00;3.67;;;;;10.62;100.00;101337.63;5071814;27;45363;-83
2023/01/12 02:46:53;;;;;;;;;3.00;2.00;;;;;10.61;100.00;101328.00;5101602;27;45240;-83
2023/01/12 02:49:22;;;;;;;;;3.67;3.67;;;;;10.63;100.00;101331.34;5100261;27;46145;-83
2023/01/12 02:51:55;;;;;;;;;4.33;2.00;;;;;10.63;100.00;101318.06;5101412;27;47880;-82
2023/01/12 02:54:24;;;;;;;;;4.67;3.33;;;;;10.67;100.00;101321.22;5101435;27;45315;-82
2023/01/12 02:56:52;;;;;;;;;4.00;3.00;;;;;10.70;100.00;101326.22;5100212;27;45360;-83
2023/01/12 02:59:25;;;;;;;;;4.33;3.00;;;;;10.66;100.00;101322.22;5100879;27;45386;-82
2023/01/12 03:01:54;;;;;;;;;4.33;3.00;;;;;10.73;100.00;101324.06;5101432;27;45468;-85
2023/01/12 03:04:21;;;;;;;;;2.00;2.00;;;;;10.67;100.00;101305.25;5099690;27;45258;-83
2023/01/12 03:07:29;;;;;;;;;5.67;4.00;;;;;10.76;100.00;101316.75;5101261;27;45364;-83
2023/01/12 03:10:01;;;;;;;;;3.33;2.00;;;;;10.76;100.00;101303.47;5089913;27;45204;-83
2023/01/12 03:12:33;;;;;;;;;0.33;0.00;;;;;10.73;100.00;101292.19;5082597;27;47423;-83
2023/01/12 03:15:03;;;;;;;;;3.67;2.00;;;;;10.68;100.00;101280.34;5101071;27;45348;-83
2023/01/12 03:17:43;;;;;;;;;2.00;2.00;;;;;10.73;100.00;101294.84;5082704;27;45250;-82
2023/01/12 03:20:20;;;;;;;;;4.67;2.00;;;;;10.85;100.00;101294.53;5099763;27;46401;-82
2023/01/12 03:22:48;;;;;;;;;3.00;2.67;;;;;10.83;100.00;101284.03;5088772;27;45445;-85
2023/01/12 03:25:16;;;;;;;;;2.33;2.33;;;;;10.85;100.00;101257.28;5100874;27;45501;-82
2023/01/12 03:27:45;;;;;;;;;3.00;2.33;;;;;10.84;100.00;101268.94;5100821;27;45429;-83
2023/01/12 03:30:20;;;;;;;;;2.00;2.00;;;;;10.74;100.00;101253.09;5100703;27;45453;-83
2023/01/12 03:32:45;;;;;;;;;3.00;1.00;;;;;10.83;100.00;101253.97;5100273;27;45391;-83
2023/01/12 03:35:11;;;;;;;;;5.00;4.67;;;;;10.82;100.00;101263.78;5080736;27;45308;-81
2023/01/12 03:37:42;;;;;;;;;3.00;2.00;;;;;10.89;100.00;101260.47;5082709;27;45379;-82
2023/01/12 03:40:16;;;;;;;;;2.33;1.00;;;;;10.90;100.00;101270.94;5100707;27;45329;-82
2023/01/12 03:42:59;;;;;;;;;2.00;2.00;;;;;10.76;100.00;101232.53;5100566;27;46481;-83
2023/01/12 03:45:44;;;;;;;;;2.00;1.00;;;;;10.86;100.00;101240.34;5082121;27;45551;-83
2023/01/12 03:48:12;;;;;;;;;1.33;1.33;;;;;10.87;100.00;101247.34;5100706;27;45414;-83
2023/01/12 03:50:47;;;;;;;;;2.00;1.00;;;;;10.81;100.00;101230.19;5100540;27;45271;-82
2023/01/12 03:53:17;;;;;;;;;2.00;1.67;;;;;10.83;100.00;101222.88;5082025;27;47254;-82
2023/01/12 03:55:45;;;;;;;;;4.33;3.00;;;;;10.85;100.00;101239.53;5082077;27;45322;-83
2023/01/12 03:58:10;;;;;;;;;2.00;0.67;;;;;10.80;100.00;101231.19;5081814;27;45471;-83
2023/01/12 04:00:37;;;;;;;;;4.67;3.33;;;;;10.76;100.00;101243.16;5100491;27;45447;-84
2023/01/12 04:03:14;;;;;;;;;2.00;2.00;;;;;10.79;100.00;101249.97;5100199;27;46326;-83
2023/01/12 04:05:41;;;;;;;;;7.00;3.33;;;;;10.74;100.00;101237.16;5100347;27;45366;-83
2023/01/12 04:08:07;;;;;;;;;3.00;3.00;;;;;10.81;100.00;101243.47;5081819;27;45266;-82
2023/01/12 04:10:33;;;;;;;;;5.00;3.00;;;;;10.80;100.00;101233.00;5081326;27;46162;-82
2023/01/12 04:12:58;;;;;;;;;5.67;2.67;;;;;10.65;100.00;101207.06;5081646;27;47284;-84
2023/01/12 04:15:24;;;;;;;;;1.00;1.00;;;;;10.73;100.00;101217.72;5100334;27;45390;-81
2023/01/12 04:17:49;;;;;;;;;5.33;4.00;;;;;10.76;100.00;101197.97;5100230;27;45370;-82
2023/01/12 04:20:15;;;;;;;;;4.67;2.00;;;;;10.76;100.00;101191.78;5100314;27;45318;-83
2023/01/12 04:22:43;;;;;;;;;4.33;4.00;;;;;10.75;100.00;101195.47;5100104;27;45357;-83
2023/01/12 04:25:17;;;;;;;;;5.00;2.33;;;;;10.80;100.00;101182.50;5100110;27;45381;-83
2023/01/12 04:28:03;;;;;;;;;3.67;3.33;;;;;10.70;100.00;101169.38;5087609;27;45423;-85
2023/01/12 04:30:30;;;;;;;;;5.67;4.33;;;;;10.70;100.00;101164.88;5081478;27;46277;-83
2023/01/12 04:32:57;;;;;;;;;3.67;3.67;;;;;10.79;100.00;101171.03;5099992;27;47450;-82
2023/01/12 04:35:23;;;;;;;;;3.67;3.00;;;;;10.67;100.00;101162.56;5081169;27;45275;-82
2023/01/12 04:37:50;;;;;;;;;3.33;3.00;;;;;10.79;100.00;101179.03;5100082;27;45301;-82
2023/01/12 04:40:16;;;;;;;;;4.33;4.00;;;;;10.72;100.00;101165.53;5086172;27;45472;-83
2023/01/12 04:43:07;;;;;;;;;4.00;2.33;;;;;10.72;100.00;101154.91;5099500;27;45310;-80
2023/01/12 04:45:35;;;;;;;;;4.33;4.00;;;;;10.80;100.00;101156.75;5081345;27;45364;-82
2023/01/12 04:48:20;;;;;;;;;3.67;2.67;;;;;10.88;100.00;101166.56;5099824;27;45235;-84
2023/01/12 04:50:48;;;;;;;;;3.33;3.33;;;;;10.88;100.00;101157.72;5080649;27;46585;-83
2023/01/12 04:53:14;;;;;;;;;5.33;2.00;;;;;10.84;100.00;101179.34;5099631;27;46137;-84
2023/01/12 04:55:41;;;;;;;;;2.67;2.00;;;;;10.91;100.00;101192.81;5081307;27;45331;-83
2023/01/12 04:58:07;;;;;;;;;3.67;3.00;;;;;10.95;100.00;101182.66;5067513;27;45462;-84
2023/01/12 05:00:33;;;;;;;;;4.33;2.00;;;;;10.90;100.00;101171.72;5081243;27;45329;-84
2023/01/12 05:03:02;;;;;;;;;3.00;2.00;;;;;11.04;100.00;101172.88;5080737;27;48362;-83
2023/01/12 05:05:29;;;;;;;;;4.33;2.00;;;;;11.06;100.00;101154.91;5081321;27;45832;-84
2023/01/12 05:10:42;;;;;;;;;4.00;2.33;;;;;10.97;100.00;101154.94;5099398;27;45290;-83
2023/01/12 05:13:07;;;;;;;;;1.33;1.33;;;;;11.10;100.00;101166.88;5080851;27;47252;-84
2023/01/12 05:15:33;;;;;;;;;5.33;3.00;;;;;11.03;100.00;101145.44;5099398;27;45258;-83
2023/01/12 05:17:58;;;;;;;;;3.00;3.00;;;;;11.14;100.00;101152.25;5081289;27;45498;-81
2023/01/12 05:20:23;;;;;;;;;3.00;3.00;;;;;11.09;100.00;101142.13;5099580;27;45449;-83
2023/01/12 05:22:50;;;;;;;;;1.00;1.00;;;;;11.17;100.00;101151.09;5101110;27;46672;-83
2023/01/12 05:25:15;;;;;;;;;7.00;5.00;;;;;11.11;100.00;101137.44;5102873;27;45231;-83
2023/01/12 05:27:41;;;;;;;;;1.33;1.33;;;;;11.16;100.00;101134.28;5102577;27;45603;-82
2023/01/12 05:30:07;;;;;;;;;2.67;2.00;;;;;11.20;100.00;101159.53;5084233;27;47314;-82
2023/01/12 05:32:42;;;;;;;;;3.67;3.00;;;;;11.15;100.00;101159.22;5084608;27;47108;-82
2023/01/12 05:35:08;;;;;;;;;4.00;3.00;;;;;11.17;100.00;101149.28;5084068;27;45492;-83
2023/01/12 05:37:33;;;;;;;;;5.33;3.67;;;;;11.08;100.00;101151.06;5102917;27;45374;-83
2023/01/12 05:39:59;;;;;;;;;5.00;3.00;;;;;11.23;100.00;101158.41;5102244;27;45490;-82
2023/01/12 05:45:10;;;;;;;;;5.33;5.33;;;;;11.16;100.00;101138.78;5088715;27;45326;-83
2023/01/12 05:47:35;;;;;;;;;2.00;2.00;;;;;11.24;100.00;101152.91;5084190;27;45416;-85
2023/01/12 05:50:01;;;;;;;;;4.33;3.67;;;;;11.23;100.00;101145.09;5102271;27;45390;-83
2023/01/12 05:52:26;;;;;;;;;4.00;3.33;;;;;11.17;100.00;101143.09;5083926;27;47524;-83
2023/01/12 05:54:52;;;;;;;;;4.33;3.00;;;;;11.16;100.00;101134.28;5102373;27;45398;-85
2023/01/12 05:57:17;;;;;;;;;2.67;1.33;;;;;11.23;100.00;101145.91;5084291;27;45337;-84
2023/01/12 05:59:42;;;;;;;;;4.00;3.00;;;;;11.20;100.00;101145.44;5101950;27;45286;-81
2023/01/12 06:02:10;;;;;;;;;3.33;1.67;;;;;11.33;100.00;101177.69;5102301;27;45321;-83
2023/01/12 06:04:37;;;;;;;;;3.00;2.67;;;;;11.30;100.00;101174.50;5102227;27;45436;-83
2023/01/12 06:07:02;;;;;;;;;3.67;3.33;;;;;11.24;100.00;101160.06;5102964;27;45426;-83
2023/01/12 06:09:27;;;;;;;;;1.00;1.00;;;;;11.29;100.00;101165.72;5077886;28;46293;-84
2023/01/12 06:14:37;;;;;;;;;2.00;1.33;;;;;11.26;100.00;101146.59;5088903;27;45429;-84
2023/01/12 06:17:02;;;;;;;;;3.00;2.33;;;;;11.33;100.00;101167.03;5102048;27;45278;-80
2023/01/12 06:19:27;;;;;;;;;4.00;1.00;;;;;11.39;100.00;101170.00;5083638;27;46051;-81
2023/01/12 06:21:54;;;;;;;;;4.33;3.33;;;;;11.31;100.00;101144.25;5083453;27;47287;-80
2023/01/12 06:24:20;;;;;;;;;2.33;1.33;;;;;11.33;100.00;101150.22;5102224;27;45479;-81
2023/01/12 06:26:45;;;;;;;;;2.33;1.67;;;;;11.37;100.00;101151.53;5083211;27;45529;-85
2023/01/12 06:29:12;;;;;;;;;4.00;2.67;;;;;11.30;100.00;101150.56;5101846;27;45290;-82
2023/01/12 06:31:38;;;;;;;;;3.00;2.00;;;;;11.36;100.00;101158.72;5101607;27;45424;-84
2023/01/12 06:34:06;;;;;;;;;2.00;2.00;;;;;11.39;100.00;101162.00;5085898;27;46037;-83
2023/01/12 06:36:32;;;;;;;;;4.00;2.00;;;;;11.35;100.00;101167.69;5083509;27;45489;-82
2023/01/12 06:38:57;;;;;;;;;3.00;3.00;;;;;11.30;100.00;101169.19;5083268;27;45817;-80
2023/01/12 06:44:09;;;;;;;;;3.00;2.00;;;;;11.36;100.00;101181.81;5090226;27;45367;-81
2023/01/12 06:46:35;;;;;;;;;4.00;2.00;;;;;11.27;100.00;101172.19;5083123;27;45425;-80
2023/01/12 06:49:00;;;;;;;;;4.33;3.00;;;;;11.29;100.00;101191.47;5101603;27;45255;-84
2023/01/12 06:51:26;;;;;;;;;3.00;2.33;;;;;11.34;100.00;101203.28;5101352;27;46206;-81
2023/01/12 06:53:51;;;;;;;;;3.33;2.67;;;;;11.33;100.00;101209.63;5101584;27;45417;-82
2023/01/12 06:56:17;;;;;;;;;1.67;1.33;;;;;11.32;100.00;101191.97;5083156;27;45272;-82
2023/01/12 06:58:43;;;;;;;;;4.67;2.00;;;;;11.40;100.00;101195.63;5095574;27;45352;-84
2023/01/12 07:01:08;;;;;;;;;3.00;2.00;;;;;11.34;100.00;101181.16;5095755;27;46690;-82
2023/01/12 07:03:34;;;;;;;;;4.00;3.33;;;;;11.42;100.00;101186.47;5091292;27;45417;-85
2023/01/12 07:06:00;;;;;;;;;4.67;3.33;;;;;11.35;100.00;101183.63;5081872;27;45578;-84
2023/01/12 07:08:26;;;;;;;;;3.67;2.00;;;;;11.39;100.00;101186.81;5112148;27;45315;-84
2023/01/12 07:10:51;;;;;;;;;3.33;3.33;;;;;11.51;100.00;101199.75;5088015;27;45491;-85
2023/01/12 07:13:17;;;;;;;;;4.67;3.00;;;;;11.53;100.00;101197.78;5099772;27;45235;-84
2023/01/12 07:15:42;;;;;;;;;2.00;1.33;;;;;11.52;100.00;101198.78;5083487;27;45422;-85
2023/01/12 07:18:08;;;;;;;;;2.33;1.33;;;;;11.54;100.00;101191.44;5083427;27;45767;-84
2023/01/12 07:20:34;;;;;;;;;4.00;1.33;;;;;11.58;100.00;101190.09;5088367;27;45454;-86
2023/01/12 07:22:59;;;;;;;;;2.67;2.67;;;;;11.52;100.00;101175.63;5083011;27;45287;-86
2023/01/12 07:25:25;;;;;;;;;2.33;2.33;;;;;11.48;100.00;101183.16;5082728;27;45369;-86
2023/01/12 07:27:53;;;;;;;;;4.00;2.00;;;;;11.51;100.00;101194.44;5104077;27;45314;-84
2023/01/12 07:30:20;;;;;;;;;6.67;3.33;;;;;11.38;100.00;101182.50;5101325;27;45454;-83
2023/01/12 07:32:46;;;;;;;;;2.00;1.33;;;;;11.23;100.00;101153.88;5089338;27;45375;-84
2023/01/12 07:35:11;;;;;;;;;2.33;2.00;;;;;11.35;100.00;101180.97;5089813;27;45297;-85
2023/01/12 07:37:36;;;;;;;;;2.67;2.33;;;;;11.05;100.00;101139.97;5088899;27;47390;-84
2023/01/12 07:40:02;;;;;;;;;4.00;2.00;;;;;11.32;100.00;101180.50;5109086;27;45247;-84
2023/01/12 07:42:27;;;;;;;;;2.33;2.00;;;;;11.32;100.00;101191.97;5109062;27;45444;-85
2023/01/12 07:44:53;;;;;;;;;4.00;2.67;;;;;11.30;100.00;101196.63;5105670;27;45480;-84
2023/01/12 07:47:19;;;;;;;;;3.00;1.67;;;;;11.17;100.00;101169.72;5089421;28;45268;-86
2023/01/12 07:49:44;;;;;;;;;3.67;1.00;;;;;11.26;100.00;101179.34;5087356;27;48214;-84
2023/01/12 07:52:11;;;;;;;;;6.00;3.33;;;;;11.27;100.00;101185.47;5092841;27;45344;-82
2023/01/12 07:54:37;;;;;;;;;2.67;2.67;;;;;11.22;100.00;101159.38;5095627;27;45362;-81
2023/01/12 07:57:03;;;;;;;;;2.67;2.00;;;;;11.27;100.00;101181.00;5083873;27;47202;-79
2023/01/12 07:59:28;;;;;;;;;5.33;5.00;;;;;11.22;100.00;101160.22;5072842;27;48142;-85
2023/01/12 08:01:54;;;;;;;;;2.00;2.00;;;;;11.26;100.00;101175.84;5080502;27;45422;-85
2023/01/12 08:04:20;;;;;;;;;3.33;2.67;;;;;11.16;100.00;101149.44;5102564;27;45275;-85
2023/01/12 08:06:47;;;;;;;;;2.00;2.00;;;;;11.26;100.00;101165.22;5109025;27;45310;-85
2023/01/12 08:09:12;;;;;;;;;3.00;3.00;;;;;11.31;100.00;101169.03;5075459;28;47199;-86
2023/01/12 08:11:37;;;;;;;;;7.67;3.00;;;;;11.27;100.00;101157.06;5094525;27;45206;-84
2023/01/12 08:14:04;;;;;;;;;2.67;1.33;;;;;11.28;100.00;101158.72;5080730;27;45256;-86
2023/01/12 08:16:34;;;;;;;;;3.00;3.00;;;;;11.38;100.00;101155.03;5082589;27;47081;-86
2023/01/12 08:19:11;;;;;;;;;4.00;3.00;;;;;11.29;100.00;101149.75;5098963;27;48382;-86
2023/01/12 08:21:57;;;;;;;;;2.33;2.33;;;;;11.44;100.00;101167.69;5107535;27;45341;-84
2023/01/12 08:24:27;;;;;;;;;2.00;2.00;;;;;11.47;100.00;101175.31;5081597;27;45276;-78
2023/01/12 08:26:56;;;;;;;;;1.33;1.33;;;;;11.39;100.00;101156.69;5093157;27;45437;-78
2023/01/12 08:29:30;;;;;;;;;2.00;1.00;;;;;11.52;100.00;101164.97;5089096;27;47652;-77
2023/01/12 08:32:03;;;;;;;;;3.00;2.00;;;;;11.56;100.00;101169.00;5099261;27;45264;-77
2023/01/12 08:34:29;;;;;;;;;0.00;0.00;;;;;11.58;100.00;101172.28;5099235;27;45436;-78
2023/01/12 08:36:59;;;;;;;;;5.00;1.67;;;;;11.62;100.00;101165.63;5093079;27;45402;-79
2023/01/12 08:39:25;;;;;;;;;1.00;1.00;;;;;11.61;100.00;101174.63;5097203;27;45428;-76
2023/01/12 08:41:50;;;;;;;;;0.67;0.00;;;;;11.54;100.00;101146.19;5099291;27;45589;-77
2023/01/12 08:44:16;;;;;;;;;0.00;0.00;;;;;11.66;100.00;101173.28;5094096;27;45479;-79
2023/01/12 08:46:47;;;;;;;;;1.00;1.00;;;;;11.72;100.00;101186.75;5100682;27;46173;-78
2023/01/12 08:49:13;;;;;;;;;3.00;1.67;;;;;11.66;100.00;101179.44;5102440;27;46318;-79
2023/01/12 08:51:39;;;;;;;;;2.33;2.33;;;;;11.67;100.00;101181.09;5104350;27;45482;-80
2023/01/12 08:54:06;;;;;;;;;1.00;1.00;;;;;11.70;100.00;101172.75;5105793;27;45448;-77
2023/01/12 08:56:32;;;;;;;;;4.00;2.00;;;;;11.60;100.00;101174.78;5091492;27;45426;-77
2023/01/12 08:58:58;;;;;;;;;2.33;1.33;;;;;11.59;100.00;101176.59;5084140;27;46997;-77
2023/01/12 09:01:23;;;;;;;;;3.00;2.33;;;;;11.47;100.00;101167.34;5102282;27;45170;-78
2023/01/12 09:03:48;;;;;;;;;3.33;1.00;;;;;11.61;100.00;101189.75;5080140;27;45856;-77
2023/01/12 09:06:26;;;;;;;;;3.00;1.00;;;;;11.62;100.00;101197.56;5081214;27;46099;-78
2023/01/12 09:08:53;;;;;;;;;2.00;2.00;;;;;11.58;100.00;101185.59;5074872;27;47518;-77
2023/01/12 09:11:19;;;;;;;;;3.00;2.00;;;;;11.57;100.00;101185.78;5093838;27;46049;-77
2023/01/12 09:13:44;;;;;;;;;3.00;2.00;;;;;11.56;100.00;101184.97;5096107;27;45961;-77
2023/01/12 09:16:12;;;;;;;;;3.00;3.00;;;;;11.62;100.00;101205.56;5098309;27;45340;-76
2023/01/12 09:18:38;;;;;;;;;2.67;2.67;;;;;11.62;100.00;101207.41;5082191;27;46455;-76
2023/01/12 09:21:10;;;;;;;;;7.00;2.00;;;;;11.58;100.00;101204.25;5076854;27;45653;-77
2023/01/12 09:23:36;;;;;;;;;6.33;2.33;;;;;11.57;100.00;101194.59;5102879;27;45440;-77
2023/01/12 09:26:07;;;;;;;;;5.33;3.67;;;;;11.64;100.00;101194.75;5102118;27;45322;-77
2023/01/12 09:28:34;;;;;;;;;2.33;2.33;;;;;11.68;100.00;101192.56;5098804;27;46245;-76
2023/01/12 09:31:04;;;;;;;;;2.00;2.00;;;;;11.69;100.00;101192.41;5100465;27;45373;-77
2023/01/12 09:33:31;;;;;;;;;4.33;3.00;;;;;11.71;100.00;101190.38;5099145;27;45412;-77
2023/01/12 09:36:03;;;;;;;;;3.33;2.33;;;;;11.74;100.00;101184.72;5107007;27;45652;-77
2023/01/12 09:38:29;;;;;;;;;5.67;4.00;;;;;11.70;100.00;101175.44;5102393;27;46002;-76
2023/01/12 09:41:01;;;;;;;;;3.00;3.00;;;;;11.81;100.00;101205.34;5102303;27;45471;-75
2023/01/12 09:49:02;;;;;;;;;2.00;2.00;;;;;11.87;100.00;101200.19;5102124;27;45846;-78
2023/01/12 09:51:36;;;;;;;;;1.33;1.33;;;;;11.90;100.00;101208.81;5102108;27;45603;-76
2023/01/12 09:54:04;;;;;;;;;0.00;0.00;;;;;11.85;100.00;101204.84;5102143;27;45362;-76
2023/01/12 09:57:00;;;;;;;;;3.00;2.00;;;;;11.81;100.00;101184.03;5084005;27;46221;-76
2023/01/12 09:59:45;;;;;;;;;2.00;1.33;;;;;11.93;100.00;101209.31;5102111;27;46141;-76
2023/01/12 10:02:12;;;;;;;;;3.00;2.67;;;;;11.73;100.00;101174.25;5083787;27;45521;-76
2023/01/12 10:04:38;;;;;;;;;3.67;2.00;;;;;11.92;100.00;101205.00;5102572;27;45327;-77
2023/01/12 10:07:04;;;;;;;;;2.00;2.00;;;;;12.02;100.00;101203.94;5109831;27;45495;-77
2023/01/12 10:09:30;;;;;;;;;5.00;2.00;;;;;12.04;100.00;101200.13;5082877;27;46084;-76
2023/01/12 10:12:21;;;;;;;;;3.00;3.00;;;;;12.08;100.00;101201.47;5101974;27;45188;-76
2023/01/12 10:14:49;;;;;;;;;2.00;2.00;;;;;12.08;100.00;101209.47;5102166;27;45370;-77
2023/01/12 10:17:26;;;;;;;;;2.33;2.33;;;;;12.06;100.00;101214.09;5102149;27;45330;-77
2023/01/12 10:19:57;;;;;;;;;2.00;1.00;;;;;12.09;100.00;101219.09;5101894;27;45410;-77
2023/01/12 10:22:38;;;;;;;;;4.00;4.00;;;;;12.11;100.00;101222.44;5101990;27;45331;-78
2023/01/12 10:25:16;;;;;;;;;3.00;3.00;;;;;12.08;100.00;101217.44;5101876;27;45345;-77
2023/01/12 10:27:44;;;;;;;;;5.00;2.33;;;;;12.08;100.00;101212.13;5101357;27;45493;-77
2023/01/12 10:30:12;;;;;;;;;2.33;2.33;;;;;12.14;100.00;101210.59;5083047;27;48566;-77
2023/01/12 10:32:40;;;;;;;;;4.33;3.67;;;;;12.11;100.00;101205.63;5101882;27;45234;-78
2023/01/12 10:35:12;;;;;;;;;2.33;2.33;;;;;12.15;100.00;101209.59;5101738;27;45357;-77
2023/01/12 10:37:51;;;;;;;;;3.00;2.00;;;;;12.16;100.00;101202.44;5101764;27;45271;-77
2023/01/12 10:40:30;;;;;;;;;3.67;3.67;;;;;12.20;100.00;101217.91;5083199;27;47420;-76
2023/01/12 10:43:18;;;;;;;;;3.00;3.00;;;;;12.07;100.00;101194.50;5101298;27;45339;-76
2023/01/12 10:46:00;;;;;;;;;2.00;1.00;;;;;12.15;100.00;101196.25;5101961;27;45314;-76
2023/01/12 10:48:25;;;;;;;;;4.67;1.00;;;;;12.08;100.00;101189.97;5079092;27;47537;-76
2023/01/12 10:50:58;;;;;;;;;1.67;1.67;;;;;12.17;100.00;101183.59;5075215;28;45637;-78
2023/01/12 10:53:47;;;;;;;;;4.67;3.00;;;;;12.04;100.00;101172.66;5101163;27;45292;-77
2023/01/12 10:56:22;;;;;;;;;2.00;2.00;;;;;12.12;100.00;101191.28;5080211;27;45441;-76
2023/01/12 10:58:53;;;;;;;;;2.33;2.33;;;;;11.84;100.00;101157.06;5101072;27;45243;-78
2023/01/12 11:01:19;;;;;;;;;3.00;2.00;;;;;12.08;100.00;101204.13;5101380;27;45631;-78
2023/01/12 11:03:44;;;;;;;;;2.00;2.00;;;;;12.03;100.00;101193.13;5099232;27;45165;-78
2023/01/12 11:06:26;;;;;;;;;4.33;3.00;;;;;12.04;100.00;101199.28;5104309;27;45309;-78
2023/01/12 11:08:52;;;;;;;;;4.00;2.00;;;;;11.96;100.00;101182.34;5083003;27;47044;-76
2023/01/12 11:11:29;;;;;;;;;6.33;4.00;;;;;11.92;100.00;101181.03;5082488;27;47123;-77
2023/01/12 11:14:00;;;;;;;;;3.00;2.00;;;;;12.04;100.00;101192.13;5073297;27;45375;-78
2023/01/12 11:16:37;;;;;;;;;4.33;4.33;;;;;12.05;100.00;101184.94;5101202;27;45416;-77
2023/01/12 11:19:14;;;;;;;;;2.33;2.33;;;;;12.08;100.00;101190.81;5101129;27;45320;-78
2023/01/12 11:21:45;;;;;;;;;3.00;2.33;;;;;12.04;100.00;101184.13;5082768;27;45999;-78
2023/01/12 11:24:25;;;;;;;;;1.67;1.67;;;;;12.09;100.00;101183.66;5101565;27;45373;-77
2023/01/12 11:27:11;;;;;;;;;3.33;3.33;;;;;12.07;100.00;101164.34;5082517;27;45253;-79
2023/01/12 11:29:53;;;;;;;;;4.33;4.33;;;;;12.15;100.00;101163.47;5101043;27;45421;-78
2023/01/12 11:32:41;;;;;;;;;5.00;3.00;;;;;12.18;100.00;101163.13;5082295;27;47271;-79
2023/01/12 11:35:33;;;;;;;;;3.33;2.00;;;;;12.25;100.00;101150.75;5091002;27;45375;-79
2023/01/12 11:38:04;;;;;;;;;3.00;3.00;;;;;12.30;100.00;101134.25;5095756;27;45885;-79
2023/01/12 11:40:36;;;;;;;;;4.67;4.00;;;;;12.39;100.00;101138.50;5111164;27;45341;-78
2023/01/12 11:46:02;;;;;;;;;2.00;2.00;;;;;12.45;100.00;101137.00;5110705;27;45379;-79
2023/01/12 11:48:56;;;;;;;;;2.67;2.33;;;;;12.46;100.00;101134.16;5082220;27;45427;-79
2023/01/12 11:51:21;;;;;;;;;3.00;2.00;;;;;12.29;100.00;101112.09;5071778;27;47640;-77
2023/01/12 11:53:47;;;;;;;;;4.00;2.00;;;;;12.40;100.00;101131.34;5079445;27;47563;-79
2023/01/12 11:56:41;;;;;;;;;6.67;2.67;;;;;12.31;100.00;101119.91;5093030;27;45247;-79
2023/01/12 11:59:21;;;;;;;;;3.67;3.33;;;;;12.35;100.00;101132.72;5094849;27;45377;-78